createdAt,value
2022-12-27T00:36:40.732Z,3.60
2022-12-27T02:15:33.193Z,4.40
2022-12-27T02:40:10.320Z,4.40
2022-12-27T03:32:09.236Z,4.80
2022-12-27T04:40:40.152Z,4.70
2022-12-27T06:55:31.447Z,4.50
2022-12-27T09:02:25.581Z,5.90
2022-12-27T09:04:52.495Z,6.00
2022-12-27T09:07:19.669Z,6.10
2022-12-27T09:09:46.602Z,6.10
2022-12-27T09:12:13.491Z,6.20
2022-12-27T09:14:40.501Z,6.40
2022-12-27T09:17:09.462Z,6.50
2022-12-27T09:19:36.338Z,6.60
2022-12-27T09:22:03.301Z,6.70
2022-12-27T09:24:30.116Z,6.80
2022-12-27T09:26:56.879Z,6.90
2022-12-27T09:29:23.671Z,7.10
2022-12-27T09:31:50.413Z,7.30
2022-12-27T09:34:17.268Z,7.20
2022-12-27T09:36:44.144Z,7.20
2022-12-27T09:39:13.694Z,7.20
2022-12-27T09:45:00.842Z,7.50
2022-12-27T09:47:32.940Z,7.60
2022-12-27T09:50:10.260Z,7.80
2022-12-27T09:52:49.409Z,7.80
2022-12-27T09:55:19.761Z,7.60
2022-12-27T09:57:47.588Z,7.50
2022-12-27T10:00:29.685Z,7.70
2022-12-27T10:08:41.343Z,7.60
2022-12-27T10:11:34.130Z,7.90
2022-12-27T10:14:19.651Z,8.40
2022-12-27T10:17:03.016Z,8.70
2022-12-27T10:19:50.461Z,9.00
2022-12-27T10:22:49.837Z,9.10
2022-12-27T10:25:19.708Z,9.20
2022-12-27T10:27:47.459Z,9.20
2022-12-27T10:30:20.209Z,9.20
2022-12-27T10:32:49.880Z,9.20
2022-12-27T10:35:21.106Z,9.20
2022-12-27T10:37:48.945Z,9.20
2022-12-27T10:40:34.315Z,9.10
2022-12-27T10:43:04.772Z,9.00
2022-12-27T10:45:39.744Z,9.10
2022-12-27T10:48:25.102Z,9.40
2022-12-27T10:51:02.197Z,9.50
2022-12-27T10:53:47.144Z,9.50
2022-12-27T10:56:19.829Z,9.50
2022-12-27T10:58:58.235Z,9.50
2022-12-27T11:01:28.370Z,9.60
2022-12-27T11:04:21.000Z,9.60
2022-12-27T11:07:10.681Z,9.30
2022-12-27T11:12:32.008Z,9.40
2022-12-27T11:15:11.135Z,9.80
2022-12-27T11:17:42.581Z,10.20
2022-12-27T11:20:15.035Z,10.60
2022-12-27T11:22:51.857Z,10.40
2022-12-27T11:25:21.885Z,10.30
2022-12-27T11:27:52.620Z,10.10
2022-12-27T11:30:29.189Z,9.60
2022-12-27T11:33:07.571Z,9.70
2022-12-27T11:35:37.280Z,9.80
2022-12-27T11:38:04.009Z,9.60
2022-12-27T11:40:34.641Z,9.80
2022-12-27T11:43:11.987Z,9.60
2022-12-27T11:45:42.635Z,9.60
2022-12-27T11:48:21.030Z,9.80
2022-12-27T11:50:55.679Z,9.60
2022-12-27T11:53:56.230Z,9.80
2022-12-27T11:56:54.844Z,9.60
2022-12-27T11:59:32.436Z,9.50
2022-12-27T12:02:32.899Z,9.40
2022-12-27T12:05:12.914Z,9.60
2022-12-27T12:08:08.015Z,9.70
2022-12-27T12:10:53.568Z,9.70
2022-12-27T12:13:59.183Z,9.60
2022-12-27T12:16:55.749Z,9.70
2022-12-27T12:20:04.615Z,9.60
2022-12-27T12:22:56.040Z,9.60
2022-12-27T12:25:28.640Z,9.30
2022-12-27T12:28:30.345Z,9.30
2022-12-27T12:31:00.811Z,9.30
2022-12-27T12:33:58.630Z,9.30
2022-12-27T12:36:52.963Z,9.50
2022-12-27T12:39:47.796Z,9.60
2022-12-27T12:42:29.667Z,9.50
2022-12-27T12:45:15.043Z,9.50
2022-12-27T12:48:07.670Z,9.60
2022-12-27T12:50:53.470Z,9.60
2022-12-27T12:53:23.063Z,9.90
2022-12-27T12:56:14.569Z,10.10
2022-12-27T12:59:10.565Z,10.30
2022-12-27T13:01:54.305Z,9.90
2022-12-27T13:07:42.215Z,9.50
2022-12-27T13:10:38.347Z,9.60
2022-12-27T13:19:06.830Z,10.00
2022-12-27T13:21:57.520Z,10.00
2022-12-27T13:24:43.016Z,10.00
2022-12-27T13:27:15.642Z,9.90
2022-12-27T13:35:28.923Z,9.70
2022-12-27T13:38:20.609Z,9.70
2022-12-27T13:41:18.256Z,9.40
2022-12-27T13:44:03.153Z,9.10
2022-12-27T13:46:44.400Z,9.20
2022-12-27T13:49:29.225Z,9.10
2022-12-27T13:52:21.672Z,9.40
2022-12-27T13:55:39.279Z,9.10
2022-12-27T13:58:20.675Z,9.40
2022-12-27T14:04:37.491Z,9.80
2022-12-27T14:07:19.680Z,10.20
2022-12-27T14:10:13.578Z,10.60
2022-12-27T14:43:30.937Z,9.10
2022-12-27T14:46:30.659Z,8.90
2022-12-27T14:49:07.617Z,8.90
2022-12-27T14:52:04.733Z,8.70
2022-12-27T15:38:54.512Z,7.60
